createdAt,value
2022-11-29T16:53:42.825Z,101069.13
2022-11-29T16:56:17.066Z,101077.22
2022-11-29T16:59:24.754Z,101074.69
2022-11-29T17:01:39.812Z,101081.88
2022-11-29T17:04:09.965Z,101073.31
2022-11-29T17:06:39.007Z,101082.50
2022-11-29T17:09:07.390Z,101087.47
2022-11-29T17:11:35.800Z,101080.13
2022-11-29T17:14:03.957Z,101080.75
2022-11-29T17:16:32.651Z,101085.06
2022-11-29T17:19:01.417Z,101074.81
2022-11-29T17:21:33.056Z,101081.84
2022-11-29T17:24:01.873Z,101084.38
2022-11-29T17:26:30.396Z,101082.56
2022-11-29T17:28:58.696Z,101082.38
2022-11-29T17:31:27.684Z,101084.09
2022-11-29T17:33:56.378Z,101088.44
2022-11-29T17:36:24.812Z,101085.78
2022-11-29T17:38:52.880Z,101089.53
2022-11-29T17:41:23.729Z,101092.19
2022-11-29T17:43:54.127Z,101089.53
2022-11-29T17:46:23.952Z,101091.41
2022-11-29T17:48:52.911Z,101096.75
2022-11-29T17:51:50.532Z,101095.81
2022-11-29T17:54:12.863Z,101098.47
2022-11-29T17:56:42.137Z,101090.47
2022-11-29T17:59:10.717Z,101104.81
2022-11-29T18:01:39.116Z,101101.44
2022-11-29T18:04:08.700Z,101105.97
2022-11-29T18:06:40.786Z,101101.50
2022-11-29T18:09:11.030Z,101110.44
2022-11-29T18:11:48.293Z,101112.25
2022-11-29T18:14:21.299Z,101114.16
2022-11-29T18:16:49.942Z,101109.97
2022-11-29T18:19:21.292Z,101112.63
2022-11-29T18:21:50.624Z,101111.88
2022-11-29T18:24:22.656Z,101116.34
2022-11-29T18:26:50.906Z,101110.25
2022-11-29T18:29:19.190Z,101113.88
2022-11-29T18:31:47.345Z,101119.13
2022-11-29T18:34:15.924Z,101114.72
2022-11-29T18:36:49.347Z,101118.25
2022-11-29T18:39:20.592Z,101116.47
2022-11-29T18:41:50.466Z,101120.06
2022-11-29T18:44:22.305Z,101127.97
2022-11-29T18:46:50.853Z,101119.97
2022-11-29T18:49:19.082Z,101119.13
2022-11-29T18:51:48.763Z,101122.63
2022-11-29T18:54:19.259Z,101123.50
2022-11-29T18:56:50.276Z,101125.19
2022-11-29T18:59:18.597Z,101122.63
2022-11-29T19:01:48.737Z,101130.63
2022-11-29T19:04:22.393Z,101130.81
2022-11-29T19:06:50.722Z,101129.19
2022-11-29T19:09:24.725Z,101123.22
2022-11-29T19:11:53.392Z,101131.38
2022-11-29T19:14:22.116Z,101132.53
2022-11-29T19:16:50.796Z,101129.19
2022-11-29T19:19:22.302Z,101131.94
2022-11-29T19:21:50.866Z,101135.66
2022-11-29T19:24:19.790Z,101134.97
2022-11-29T19:26:50.439Z,101137.75
2022-11-29T19:29:19.267Z,101137.81
2022-11-29T19:31:47.881Z,101134.38
2022-11-29T19:34:16.135Z,101131.94
2022-11-29T19:36:45.385Z,101131.16
2022-11-29T19:39:16.822Z,101140.19
2022-11-29T19:41:47.592Z,101133.34
2022-11-29T19:44:15.815Z,101141.50
2022-11-29T19:46:46.488Z,101139.97
2022-11-29T19:49:15.697Z,101134.81
2022-11-29T19:51:45.007Z,101150.03
2022-11-29T19:54:13.855Z,101143.00
2022-11-29T19:56:41.970Z,101148.41
2022-11-29T19:59:10.316Z,101152.13
2022-11-29T20:01:41.527Z,101148.66
2022-11-29T20:04:12.493Z,101153.13
2022-11-29T20:06:41.487Z,101159.41
2022-11-29T20:09:10.444Z,101150.75
2022-11-29T20:11:38.580Z,101162.44
2022-11-29T20:14:08.150Z,101165.38
2022-11-29T20:16:38.385Z,101159.38
2022-11-29T20:19:11.416Z,101173.00
2022-11-29T20:21:45.572Z,101170.56
2022-11-29T20:24:15.316Z,101164.56
2022-11-29T20:26:47.217Z,101169.69
2022-11-29T20:29:16.719Z,101164.28
2022-11-29T20:31:50.212Z,101166.19
2022-11-29T20:34:20.458Z,101163.53
2022-11-29T20:37:19.418Z,101169.03
2022-11-29T20:39:57.818Z,101163.03
2022-11-29T20:42:58.516Z,101164.31
2022-11-29T20:45:27.025Z,101162.72
2022-11-29T20:48:06.740Z,101159.94
2022-11-29T20:50:35.606Z,101161.75
2022-11-29T20:53:10.092Z,101155.50
2022-11-29T20:55:46.294Z,101160.06
2022-11-29T20:58:17.272Z,101154.84
2022-11-29T21:00:47.208Z,101165.53
2022-11-29T21:03:16.676Z,101171.03
2022-11-29T21:05:45.369Z,101157.75
2022-11-29T21:08:14.910Z,101166.75
2022-11-29T21:10:43.042Z,101159.03
2022-11-29T21:13:13.192Z,101151.34
2022-11-29T21:15:42.201Z,101159.69
2022-11-29T21:18:26.506Z,101150.91
2022-11-29T21:21:18.486Z,101143.31
2022-11-29T21:24:10.130Z,101146.28
2022-11-29T21:26:45.220Z,101143.91
2022-11-29T21:29:17.665Z,101152.06
2022-11-29T21:31:47.291Z,101148.63
2022-11-29T21:34:16.091Z,101151.44
2022-11-29T21:36:45.396Z,101140.91
2022-11-29T21:39:17.267Z,101153.34
2022-11-29T21:41:46.220Z,101152.47
2022-11-29T21:44:14.749Z,101149.72
2022-11-29T21:46:43.419Z,101144.44
2022-11-29T21:49:11.937Z,101146.31
2022-11-29T21:51:40.677Z,101150.69
2022-11-29T21:54:08.865Z,101150.69
2022-11-29T21:56:37.142Z,101150.69
2022-11-29T21:59:06.505Z,101147.06
2022-11-29T22:01:35.243Z,101150.69
2022-11-29T22:04:04.725Z,101147.28
2022-11-29T22:06:32.967Z,101135.28
2022-11-29T22:09:01.676Z,101137.94
2022-11-29T22:11:34.965Z,101140.75
2022-11-29T22:14:14.569Z,101142.63
2022-11-29T22:17:03.370Z,101136.63
2022-11-29T22:19:34.012Z,101141.19
2022-11-29T22:22:09.810Z,101139.47
2022-11-29T22:24:38.754Z,101143.06
2022-11-29T22:27:07.098Z,101138.00
2022-11-29T22:29:35.697Z,101138.00
2022-11-29T22:32:04.264Z,101135.44
2022-11-29T22:34:32.495Z,101136.31
2022-11-29T22:37:01.010Z,101136.31
2022-11-29T22:39:29.691Z,101138.16
2022-11-29T22:41:58.447Z,101127.56
2022-11-29T22:44:27.206Z,101127.75
2022-11-29T22:46:55.965Z,101128.66
2022-11-29T22:49:24.633Z,101138.50
2022-11-29T22:51:54.397Z,101127.16
2022-11-29T22:54:22.771Z,101130.72
2022-11-29T22:56:51.588Z,101120.28
2022-11-29T22:59:20.171Z,101125.66
2022-11-29T23:01:48.976Z,101128.41
2022-11-29T23:04:17.143Z,101124.91
2022-11-29T23:06:46.765Z,101121.47
2022-11-29T23:09:22.714Z,101125.22
2022-11-29T23:11:54.900Z,101122.56
2022-11-29T23:14:24.421Z,101127.19
2022-11-29T23:16:52.751Z,101121.09
2022-11-29T23:19:21.173Z,101118.72
2022-11-29T23:21:49.313Z,101124.09
2022-11-29T23:24:17.350Z,101122.47
2022-11-29T23:26:47.533Z,101121.44
2022-11-29T23:29:24.528Z,101119.66
2022-11-29T23:31:52.448Z,101125.81
2022-11-29T23:34:20.308Z,101116.16
2022-11-29T23:36:52.570Z,101120.75
2022-11-29T23:39:22.445Z,101116.41
2022-11-29T23:41:51.666Z,101119.09
2022-11-29T23:44:20.161Z,101117.50
2022-11-29T23:46:48.641Z,101114.75
2022-11-29T23:49:16.937Z,101121.94
2022-11-29T23:51:45.436Z,101111.25
2022-11-29T23:54:13.831Z,101115.69
2022-11-29T23:56:42.137Z,101115.69
2022-11-29T23:59:11.187Z,101105.19
